Time;durP1;ratioP1;P1;durP2;ratioP2;P2;SDS_P1;SDS_P2;PMS_P1;PMS_P2;Temp;Humidity;BMP_temperature;BMP_pressure;BME280_temperature;BME280_humidity;BME280_pressure;Samples;Min_cycle;Max_cycle;Signal;HPM_P1;HPM_P2
2022/08/26 00:00:33;;;;;;;14.73;11.13;;;22.30;99.90;;;;;;5043266;28;20064;-36
2022/08/26 00:02:59;;;;;;;15.75;10.77;;;22.30;99.90;;;;;;5044209;28;20052;-38
2022/08/26 00:05:25;;;;;;;14.00;9.00;;;22.30;99.90;;;;;;5042572;28;20434;-35
2022/08/26 00:07:51;;;;;;;15.90;10.63;;;22.20;99.90;;;;;;5043345;28;20032;-36
2022/08/26 00:10:17;;;;;;;14.43;10.25;;;22.30;99.90;;;;;;5044125;28;20550;-36
2022/08/26 00:12:44;;;;;;;13.77;10.35;;;22.20;99.90;;;;;;5042576;28;20495;-37
2022/08/26 00:15:12;;;;;;;9.70;8.60;;;22.20;99.90;;;;;;5043992;28;20021;-34
2022/08/26 00:17:38;;;;;;;17.08;9.50;;;22.20;99.90;;;;;;5043525;28;20029;-37
2022/08/26 00:20:06;;;;;;;12.65;9.38;;;22.20;99.90;;;;;;5042561;28;20483;-34
2022/08/26 00:22:32;;;;;;;13.02;8.95;;;22.20;99.90;;;;;;5043885;28;20048;-35
2022/08/26 00:24:58;;;;;;;12.07;8.32;;;22.20;99.90;;;;;;5043252;28;20365;-35
2022/08/26 00:27:23;;;;;;;11.30;8.32;;;22.10;99.90;;;;;;5043378;28;20180;-36
2022/08/26 00:29:49;;;;;;;10.75;8.80;;;22.10;99.90;;;;;;5047102;28;20105;-36
2022/08/26 00:32:14;;;;;;;10.18;7.10;;;22.10;99.90;;;;;;5046821;28;20036;-36
2022/08/26 00:34:40;;;;;;;8.68;6.20;;;22.10;99.90;;;;;;5046955;28;20021;-36
2022/08/26 00:37:06;;;;;;;12.38;7.63;;;22.20;99.90;;;;;;5046800;28;20369;-37
2022/08/26 00:39:31;;;;;;;13.45;7.25;;;22.20;99.90;;;;;;5046803;28;20576;-36
2022/08/26 00:41:57;;;;;;;9.57;7.07;;;22.10;99.90;;;;;;5047016;28;20452;-37
2022/08/26 00:44:23;;;;;;;14.63;7.22;;;22.10;99.90;;;;;;5046936;28;20032;-37
2022/08/26 00:46:58;;;;;;;8.85;6.47;;;22.10;99.90;;;;;;5046076;28;20021;-36
2022/08/26 00:49:39;;;;;;;9.32;6.53;;;22.10;99.90;;;;;;5046639;28;20037;-35
2022/08/26 00:52:09;;;;;;;11.88;6.45;;;22.10;99.90;;;;;;5047140;28;20040;-35
2022/08/26 00:54:44;;;;;;;9.90;6.30;;;22.10;99.90;;;;;;5046822;28;20033;-38
2022/08/26 00:57:13;;;;;;;9.93;6.35;;;22.10;99.90;;;;;;5046631;28;20086;-35
2022/08/26 00:59:39;;;;;;;9.02;5.82;;;22.00;99.90;;;;;;5046423;28;20633;-35
2022/08/26 01:02:05;;;;;;;8.70;5.88;;;22.00;99.90;;;;;;5045560;28;20032;-37
2022/08/26 01:04:33;;;;;;;7.32;5.53;;;21.90;99.90;;;;;;5045863;28;20377;-37
2022/08/26 01:06:59;;;;;;;11.35;5.50;;;21.90;99.90;;;;;;5046218;28;20040;-37
2022/08/26 01:09:25;;;;;;;8.98;4.95;;;21.90;99.90;;;;;;5046581;28;20013;-36
2022/08/26 01:11:55;;;;;;;7.32;4.50;;;21.90;99.90;;;;;;5046507;28;20060;-34
2022/08/26 01:14:23;;;;;;;9.27;5.15;;;21.90;99.90;;;;;;5046211;28;20017;-37
2022/08/26 01:16:49;;;;;;;8.27;4.68;;;21.80;99.90;;;;;;5046776;28;20057;-36
2022/08/26 01:19:41;;;;;;;9.45;4.88;;;21.80;99.90;;;;;;5046755;28;20195;-39
2022/08/26 01:22:44;;;;;;;11.63;4.53;;;21.80;99.90;;;;;;5045756;28;20032;-36
2022/08/26 01:25:10;;;;;;;6.90;3.80;;;21.80;99.90;;;;;;5046295;28;20037;-37
2022/08/26 01:27:36;;;;;;;5.00;4.07;;;21.80;99.90;;;;;;5046202;28;20110;-36
2022/08/26 01:30:03;;;;;;;6.72;3.67;;;21.80;99.90;;;;;;5046143;28;20068;-37
2022/08/26 01:32:31;;;;;;;4.57;3.30;;;21.80;99.90;;;;;;5045742;28;20033;-37
2022/08/26 01:34:57;;;;;;;6.68;3.78;;;21.80;99.90;;;;;;5046570;28;20083;-36
2022/08/26 01:37:28;;;;;;;7.05;3.55;;;21.80;99.90;;;;;;5045668;28;20547;-36
2022/08/26 01:39:55;;;;;;;7.90;4.07;;;21.80;99.90;;;;;;5045037;28;20108;-35
2022/08/26 01:42:22;;;;;;;6.80;3.80;;;21.80;99.90;;;;;;5046099;28;20017;-36
2022/08/26 01:45:07;;;;;;;6.78;3.20;;;21.80;99.90;;;;;;5045357;28;20056;-37
2022/08/26 01:47:35;;;;;;;9.10;4.10;;;21.80;99.90;;;;;;5044920;28;20025;-36
2022/08/26 01:50:06;;;;;;;5.72;3.70;;;21.70;99.90;;;;;;5044615;28;20347;-35
2022/08/26 01:52:35;;;;;;;5.82;3.85;;;21.70;99.90;;;;;;5045238;28;20037;-36
2022/08/26 01:55:01;;;;;;;8.18;4.10;;;21.70;99.90;;;;;;5045580;28;20035;-35
2022/08/26 01:57:27;;;;;;;7.47;3.50;;;21.70;99.90;;;;;;5045380;28;20334;-35
2022/08/26 01:59:57;;;;;;;6.45;3.95;;;21.60;99.90;;;;;;5045058;28;20383;-36
2022/08/26 02:02:23;;;;;;;6.50;3.50;;;21.70;99.90;;;;;;5045360;28;20060;-36
2022/08/26 02:04:55;;;;;;;7.07;3.35;;;21.60;99.90;;;;;;5041437;28;20123;-36
2022/08/26 02:07:21;;;;;;;4.72;3.10;;;21.60;99.90;;;;;;5046284;28;20055;-36
2022/08/26 02:09:46;;;;;;;4.85;2.70;;;21.60;99.90;;;;;;5044832;28;20810;-36
2022/08/26 02:12:15;;;;;;;4.68;3.00;;;21.60;99.90;;;;;;5045377;28;20051;-36
2022/08/26 02:14:48;;;;;;;5.95;3.13;;;21.60;99.90;;;;;;5044124;28;20029;-36
2022/08/26 02:17:15;;;;;;;5.05;3.20;;;21.60;99.90;;;;;;5044239;28;20036;-35
2022/08/26 02:19:45;;;;;;;5.43;3.00;;;21.60;99.90;;;;;;5042307;28;20039;-36
2022/08/26 02:22:16;;;;;;;7.15;3.45;;;21.60;99.90;;;;;;5025243;28;20352;-37
2022/08/26 02:24:48;;;;;;;5.72;3.30;;;21.60;99.90;;;;;;5039492;28;20021;-37
2022/08/26 02:27:16;;;;;;;6.03;2.83;;;21.60;99.90;;;;;;5045329;28;20036;-35
2022/08/26 02:29:52;;;;;;;6.32;2.70;;;21.60;99.90;;;;;;5044435;28;20368;-38
2022/08/26 02:32:17;;;;;;;5.93;3.20;;;21.60;99.90;;;;;;5044841;28;20037;-37
2022/08/26 02:34:45;;;;;;;6.15;2.75;;;21.60;99.90;;;;;;5044670;28;20017;-35
2022/08/26 02:37:10;;;;;;;8.05;3.40;;;21.60;99.90;;;;;;5045820;28;20086;-36
2022/08/26 02:39:39;;;;;;;6.25;3.55;;;21.60;99.90;;;;;;5043901;28;20017;-38
2022/08/26 02:42:05;;;;;;;6.47;2.95;;;21.60;99.90;;;;;;5045222;28;20029;-35
2022/08/26 02:44:31;;;;;;;4.20;2.28;;;21.50;99.90;;;;;;5045062;28;20021;-36
2022/08/26 02:46:56;;;;;;;3.88;2.20;;;21.50;99.90;;;;;;5044767;28;20029;-37
2022/08/26 02:49:23;;;;;;;6.28;2.60;;;21.50;99.90;;;;;;5045378;28;20551;-38
2022/08/26 02:51:49;;;;;;;4.15;2.30;;;21.50;99.90;;;;;;5044105;28;20043;-39
2022/08/26 02:54:15;;;;;;;5.28;2.25;;;21.40;99.90;;;;;;5044858;28;20107;-36
2022/08/26 02:56:42;;;;;;;4.70;2.47;;;21.40;99.90;;;;;;5044228;28;20058;-36
2022/08/26 02:59:11;;;;;;;4.70;2.10;;;21.40;99.90;;;;;;5044554;28;20021;-37
2022/08/26 03:01:37;;;;;;;3.55;2.00;;;21.40;99.90;;;;;;5042984;28;20544;-37
2022/08/26 03:04:05;;;;;;;5.53;2.20;;;21.40;99.90;;;;;;5044634;28;20028;-37
2022/08/26 03:06:30;;;;;;;4.80;2.10;;;21.40;99.90;;;;;;5043977;28;20136;-38
2022/08/26 03:08:56;;;;;;;3.65;1.67;;;21.50;99.90;;;;;;5044189;28;20543;-37
2022/08/26 03:11:22;;;;;;;4.03;1.70;;;21.50;99.90;;;;;;5044014;28;20033;-36
2022/08/26 03:13:48;;;;;;;3.88;1.95;;;21.50;99.90;;;;;;5044093;28;20119;-44
2022/08/26 03:16:14;;;;;;;8.52;2.17;;;21.60;99.90;;;;;;5043954;28;20032;-35
2022/08/26 03:18:40;;;;;;;2.70;1.60;;;21.60;99.90;;;;;;5043548;28;20021;-37
2022/08/26 03:21:09;;;;;;;4.22;2.20;;;21.60;99.90;;;;;;5043624;28;20021;-35
2022/08/26 03:23:36;;;;;;;3.60;2.15;;;21.60;99.90;;;;;;5043829;28;20025;-36
2022/08/26 03:26:02;;;;;;;3.78;1.75;;;21.50;99.90;;;;;;5044140;28;20032;-38
2022/08/26 03:28:28;;;;;;;3.47;1.95;;;21.60;99.90;;;;;;5043544;28;20151;-36
2022/08/26 03:30:53;;;;;;;4.40;1.65;;;21.50;99.90;;;;;;5043692;28;20071;-37
2022/08/26 03:33:19;;;;;;;3.65;1.58;;;21.60;99.90;;;;;;5044808;28;20028;-36
2022/08/26 03:35:48;;;;;;;3.45;1.48;;;21.50;99.90;;;;;;5043681;28;20392;-36
2022/08/26 03:38:14;;;;;;;4.35;1.58;;;21.60;99.90;;;;;;5043765;28;20047;-36
2022/08/26 03:40:41;;;;;;;2.65;1.20;;;21.50;99.90;;;;;;5043712;28;20054;-35
2022/08/26 03:43:07;;;;;;;2.05;1.33;;;21.50;99.90;;;;;;5043553;28;20026;-35
2022/08/26 03:45:34;;;;;;;2.85;1.35;;;21.60;99.90;;;;;;5043768;28;20025;-37
2022/08/26 03:48:00;;;;;;;2.53;1.17;;;21.60;99.90;;;;;;5043832;28;20404;-36
2022/08/26 03:50:26;;;;;;;3.15;1.35;;;21.70;99.90;;;;;;5043311;28;20083;-37
2022/08/26 03:52:53;;;;;;;3.63;1.50;;;21.70;99.90;;;;;;5042812;28;20041;-35
2022/08/26 03:55:20;;;;;;;2.40;1.42;;;21.70;99.90;;;;;;5044447;28;20504;-44
2022/08/26 03:57:46;;;;;;;6.05;1.95;;;21.70;99.90;;;;;;5042573;28;20021;-36
2022/08/26 04:00:14;;;;;;;4.90;1.60;;;21.70;99.90;;;;;;5043794;28;20029;-37
2022/08/26 04:02:44;;;;;;;2.10;1.30;;;21.70;99.90;;;;;;5043683;28;20024;-36
2022/08/26 04:05:13;;;;;;;2.38;1.30;;;21.70;99.90;;;;;;5047057;28;20048;-37
2022/08/26 04:07:41;;;;;;;2.22;1.40;;;21.70;99.90;;;;;;5047083;28;20541;-36
2022/08/26 04:10:07;;;;;;;2.88;1.20;;;21.70;99.90;;;;;;5047017;28;20482;-37
2022/08/26 04:12:35;;;;;;;4.30;1.40;;;21.80;99.90;;;;;;5046988;28;20048;-36
2022/08/26 04:15:00;;;;;;;2.55;1.17;;;21.80;99.90;;;;;;5047877;28;20063;-35
2022/08/26 04:17:26;;;;;;;4.03;1.42;;;21.80;99.90;;;;;;5046803;28;20023;-36
2022/08/26 04:19:52;;;;;;;3.17;1.20;;;21.80;99.90;;;;;;5047276;28;20025;-36
2022/08/26 04:22:18;;;;;;;4.25;1.65;;;21.80;99.90;;;;;;5047749;28;20025;-36
2022/08/26 04:24:45;;;;;;;2.83;1.17;;;21.70;99.90;;;;;;5046387;28;20234;-37
2022/08/26 04:27:10;;;;;;;3.20;1.20;;;21.70;99.90;;;;;;5047070;28;20032;-36
2022/08/26 04:29:38;;;;;;;3.42;1.10;;;21.70;99.90;;;;;;5047252;28;20429;-36
2022/08/26 04:32:04;;;;;;;3.10;1.10;;;21.70;99.90;;;;;;5046919;28;20396;-37
2022/08/26 04:34:31;;;;;;;4.13;1.10;;;21.70;99.90;;;;;;5046447;28;20017;-37
2022/08/26 04:36:57;;;;;;;3.67;1.05;;;21.70;99.90;;;;;;5047165;28;20473;-37
2022/08/26 04:39:23;;;;;;;2.25;1.00;;;21.70;99.90;;;;;;5047033;28;20044;-38
2022/08/26 04:41:49;;;;;;;3.63;1.30;;;21.70;99.90;;;;;;5046714;28;20377;-36
2022/08/26 04:44:15;;;;;;;4.22;1.83;;;21.70;99.90;;;;;;5047086;28;20021;-37
2022/08/26 04:46:41;;;;;;;3.50;1.13;;;21.70;99.90;;;;;;5046870;28;20024;-42
2022/08/26 04:49:07;;;;;;;4.38;1.35;;;21.70;99.90;;;;;;5046472;28;20609;-36
2022/08/26 04:51:36;;;;;;;2.67;1.00;;;21.70;99.90;;;;;;5046796;28;20040;-36
2022/08/26 04:54:02;;;;;;;3.10;1.20;;;21.80;99.90;;;;;;5046047;28;20024;-36
2022/08/26 04:56:34;;;;;;;3.78;0.93;;;21.80;99.90;;;;;;5046557;28;20119;-36
2022/08/26 04:59:01;;;;;;;4.03;1.15;;;21.80;99.90;;;;;;5046711;28;20780;-37
2022/08/26 05:01:28;;;;;;;3.78;0.82;;;21.80;99.90;;;;;;5045894;28;20396;-35
2022/08/26 05:03:54;;;;;;;1.73;0.80;;;21.80;99.90;;;;;;5046753;28;20072;-35
2022/08/26 05:06:19;;;;;;;2.60;0.70;;;21.80;99.90;;;;;;5046327;28;20073;-36
2022/08/26 05:08:45;;;;;;;3.80;1.23;;;21.80;99.90;;;;;;5045767;28;20028;-36
2022/08/26 05:11:11;;;;;;;3.15;1.00;;;21.80;99.90;;;;;;5047220;28;20032;-36
2022/08/26 05:13:38;;;;;;;3.33;1.08;;;21.80;99.90;;;;;;5045776;28;20044;-36
2022/08/26 05:16:09;;;;;;;2.22;0.70;;;21.80;99.90;;;;;;5043798;28;20385;-37
2022/08/26 05:18:36;;;;;;;2.15;0.90;;;21.80;99.90;;;;;;5043998;28;20480;-37
2022/08/26 05:21:02;;;;;;;3.10;1.00;;;21.80;99.90;;;;;;5044396;28;20541;-36
2022/08/26 05:23:30;;;;;;;4.65;1.40;;;21.80;99.90;;;;;;5064479;28;20026;-37
2022/08/26 05:25:57;;;;;;;2.70;0.85;;;21.80;99.90;;;;;;5046334;28;20096;-37
2022/08/26 05:28:23;;;;;;;2.55;0.98;;;21.80;99.90;;;;;;5045277;28;20547;-36
2022/08/26 05:30:49;;;;;;;4.63;1.20;;;21.80;99.90;;;;;;5044393;28;20063;-36
2022/08/26 05:33:16;;;;;;;3.53;1.02;;;21.80;99.90;;;;;;5046107;28;20065;-36
2022/08/26 05:35:42;;;;;;;3.08;1.10;;;21.70;99.90;;;;;;5044508;28;20384;-38
2022/08/26 05:38:11;;;;;;;2.80;1.00;;;21.80;99.90;;;;;;5045389;28;20096;-38
2022/08/26 05:40:40;;;;;;;2.67;0.80;;;21.80;99.90;;;;;;5044857;28;20013;-36
2022/08/26 05:43:09;;;;;;;3.85;1.00;;;21.90;99.90;;;;;;5044269;28;20025;-35
2022/08/26 05:45:41;;;;;;;2.78;1.20;;;21.90;99.90;;;;;;5044299;28;20279;-36
2022/08/26 05:48:07;;;;;;;2.20;0.90;;;21.90;99.90;;;;;;5045221;28;20037;-36
2022/08/26 05:50:41;;;;;;;3.15;1.05;;;21.90;99.90;;;;;;5043860;28;20404;-36
2022/08/26 05:53:09;;;;;;;4.90;0.90;;;22.00;99.90;;;;;;5045030;28;20349;-36
2022/08/26 05:55:41;;;;;;;3.25;0.90;;;22.00;99.90;;;;;;5043876;28;20025;-36
2022/08/26 05:58:07;;;;;;;1.90;0.70;;;22.00;99.90;;;;;;5035137;28;20077;-38
2022/08/26 06:00:32;;;;;;;3.25;1.05;;;22.00;99.90;;;;;;5044647;28;20068;-35
2022/08/26 06:02:58;;;;;;;5.85;1.40;;;22.00;99.90;;;;;;5044573;28;20025;-35
2022/08/26 06:05:23;;;;;;;2.80;0.93;;;22.00;99.90;;;;;;5043888;28;20080;-36
2022/08/26 06:10:33;;;;;;;4.20;1.33;;;22.00;99.90;;;;;;5043550;28;20099;-36
2022/08/26 06:13:00;;;;;;;2.03;0.70;;;22.00;99.90;;;;;;5044588;28;20409;-36
2022/08/26 06:15:26;;;;;;;3.72;1.00;;;22.10;99.90;;;;;;5044612;28;20494;-37
2022/08/26 06:17:51;;;;;;;5.55;1.10;;;22.20;99.90;;;;;;5043451;28;20476;-36
2022/08/26 06:20:17;;;;;;;3.92;1.08;;;22.20;99.90;;;;;;5043595;28;20031;-36
2022/08/26 06:25:40;;;;;;;1.70;0.70;;;22.20;99.90;;;;;;5023589;28;20071;-38
2022/08/26 06:28:06;;;;;;;2.50;0.90;;;22.30;99.90;;;;;;5042017;28;20455;-37
2022/08/26 06:30:36;;;;;;;3.28;0.90;;;22.40;99.90;;;;;;5045063;28;20124;-36
2022/08/26 06:33:02;;;;;;;3.42;1.00;;;22.40;99.90;;;;;;5044130;28;20040;-37
2022/08/26 06:35:27;;;;;;;2.25;0.98;;;22.40;99.90;;;;;;5044339;28;20075;-37
2022/08/26 06:37:53;;;;;;;3.25;1.00;;;22.50;99.90;;;;;;5040806;28;20337;-36
2022/08/26 06:40:21;;;;;;;2.97;0.90;;;22.50;99.90;;;;;;5044185;28;20245;-36
2022/08/26 06:42:46;;;;;;;3.05;1.02;;;22.50;99.90;;;;;;5043247;28;20036;-37
2022/08/26 06:45:12;;;;;;;1.60;0.82;;;22.50;99.90;;;;;;5044571;28;20365;-37
2022/08/26 06:47:38;;;;;;;1.80;0.80;;;22.40;99.90;;;;;;5044545;28;20025;-38
2022/08/26 06:50:04;;;;;;;4.95;1.13;;;22.40;99.90;;;;;;5044495;28;20032;-37
2022/08/26 06:52:29;;;;;;;1.88;0.85;;;22.40;99.90;;;;;;5043956;28;20245;-38
2022/08/26 06:54:55;;;;;;;4.70;1.10;;;22.40;99.90;;;;;;5044662;28;20402;-37
2022/08/26 06:57:20;;;;;;;3.33;1.02;;;22.50;99.90;;;;;;5044915;28;20025;-37
2022/08/26 06:59:46;;;;;;;4.25;0.93;;;22.50;99.90;;;;;;5043420;28;20411;-36
2022/08/26 07:02:12;;;;;;;2.58;0.90;;;22.50;99.90;;;;;;5045054;28;20052;-36
2022/08/26 07:04:38;;;;;;;2.05;0.98;;;22.50;99.90;;;;;;5044099;28;20156;-38
2022/08/26 07:07:04;;;;;;;3.63;1.02;;;22.60;99.90;;;;;;5044079;28;20400;-39
2022/08/26 07:09:31;;;;;;;1.85;0.80;;;22.60;99.90;;;;;;5044491;28;20017;-37
2022/08/26 07:11:57;;;;;;;1.48;0.80;;;22.60;99.90;;;;;;5045126;28;20126;-37
2022/08/26 07:14:24;;;;;;;4.28;1.25;;;22.70;99.90;;;;;;5044225;28;20037;-36
2022/08/26 07:16:50;;;;;;;2.97;1.27;;;22.70;99.90;;;;;;5044261;28;20494;-38
2022/08/26 07:19:17;;;;;;;2.53;0.85;;;22.70;99.90;;;;;;5043440;28;20033;-37
2022/08/26 07:21:43;;;;;;;4.75;0.95;;;22.70;99.90;;;;;;5043534;28;20476;-37
2022/08/26 07:24:09;;;;;;;3.28;1.00;;;22.80;99.90;;;;;;5044009;28;20379;-37
2022/08/26 07:26:35;;;;;;;3.38;1.20;;;22.80;99.90;;;;;;5043915;28;20738;-39
2022/08/26 07:29:00;;;;;;;3.53;0.93;;;22.80;99.90;;;;;;5043742;28;20021;-36
2022/08/26 07:31:29;;;;;;;4.68;1.10;;;22.80;99.90;;;;;;5043525;28;20489;-38
2022/08/26 07:33:55;;;;;;;4.68;1.15;;;22.90;99.90;;;;;;5043663;28;20034;-36
2022/08/26 07:36:22;;;;;;;3.60;1.20;;;22.80;99.90;;;;;;5043803;28;20025;-38
2022/08/26 07:38:48;;;;;;;4.30;1.10;;;22.90;99.90;;;;;;5042199;28;20021;-38
2022/08/26 07:41:16;;;;;;;2.60;0.85;;;22.90;99.90;;;;;;5044131;28;20017;-37
2022/08/26 07:43:42;;;;;;;4.40;1.10;;;22.90;99.90;;;;;;5043586;28;20108;-37
2022/08/26 07:46:08;;;;;;;3.75;0.90;;;22.90;99.90;;;;;;5043607;28;20092;-37
2022/08/26 07:48:36;;;;;;;3.90;0.93;;;22.90;99.90;;;;;;5043143;28;20104;-37
2022/08/26 07:51:02;;;;;;;3.17;1.00;;;22.90;99.90;;;;;;5043781;28;20088;-37
2022/08/26 07:53:28;;;;;;;2.83;1.48;;;22.90;99.90;;;;;;5043795;28;20322;-37
2022/08/26 07:55:53;;;;;;;3.08;0.90;;;23.00;99.90;;;;;;5043051;28;20116;-37
2022/08/26 07:58:19;;;;;;;5.45;1.10;;;23.10;99.90;;;;;;5043602;28;20119;-36
2022/08/26 08:00:45;;;;;;;1.35;0.80;;;23.10;99.90;;;;;;5043105;28;20021;-37
2022/08/26 08:03:11;;;;;;;6.28;1.00;;;23.10;99.90;;;;;;5043800;28;20025;-36
2022/08/26 08:05:37;;;;;;;4.82;1.05;;;23.00;99.90;;;;;;5043525;28;20094;-37
2022/08/26 08:08:05;;;;;;;2.83;0.80;;;22.90;99.90;;;;;;5043717;28;20021;-37
2022/08/26 08:10:31;;;;;;;2.83;1.00;;;22.90;99.90;;;;;;5043198;28;20473;-37
2022/08/26 08:12:57;;;;;;;5.38;1.10;;;22.80;99.90;;;;;;5042937;28;20036;-37
2022/08/26 08:15:26;;;;;;;3.28;0.75;;;22.70;99.90;;;;;;5043338;28;20026;-37
2022/08/26 08:17:53;;;;;;;3.17;1.00;;;22.60;99.90;;;;;;5044058;28;20037;-36
2022/08/26 08:20:20;;;;;;;4.22;1.13;;;22.50;99.90;;;;;;5042954;28;20488;-37
2022/08/26 08:22:45;;;;;;;4.78;0.90;;;22.50;99.90;;;;;;5043074;28;20106;-36
2022/08/26 08:25:12;;;;;;;3.80;1.00;;;22.40;99.90;;;;;;5041982;28;20059;-36
2022/08/26 08:27:39;;;;;;;5.05;1.10;;;22.40;99.90;;;;;;5039671;28;20036;-37
2022/08/26 08:30:06;;;;;;;3.22;1.20;;;22.40;99.90;;;;;;5043708;28;20028;-38
2022/08/26 08:32:32;;;;;;;3.60;1.00;;;22.40;99.90;;;;;;5042357;28;20041;-37
2022/08/26 08:34:58;;;;;;;4.45;1.08;;;22.40;99.90;;;;;;5043550;28;20430;-36
2022/08/26 08:37:25;;;;;;;2.70;0.90;;;22.40;99.90;;;;;;5043075;28;20017;-37
2022/08/26 08:39:50;;;;;;;4.50;1.08;;;22.40;99.90;;;;;;5042834;28;20036;-37
2022/08/26 08:42:39;;;;;;;3.22;1.05;;;22.40;99.90;;;;;;5043941;28;20025;-37
2022/08/26 08:45:17;;;;;;;2.58;1.08;;;22.40;99.90;;;;;;5043037;28;20476;-36
2022/08/26 08:47:51;;;;;;;5.07;1.02;;;22.40;99.90;;;;;;5040505;28;20032;-37
2022/08/26 08:50:22;;;;;;;3.97;0.98;;;22.50;99.90;;;;;;5047011;28;20052;-37
2022/08/26 08:52:58;;;;;;;4.97;1.20;;;22.40;99.90;;;;;;5045629;28;20041;-36
2022/08/26 08:55:30;;;;;;;5.78;1.25;;;22.40;99.90;;;;;;5026974;28;20421;-37
2022/08/26 08:58:04;;;;;;;4.15;1.20;;;22.40;99.90;;;;;;5043253;28;20028;-37
2022/08/26 09:00:40;;;;;;;6.30;1.20;;;22.40;99.90;;;;;;5036227;28;20850;-37
2022/08/26 09:03:23;;;;;;;3.17;0.85;;;22.40;99.90;;;;;;5046265;28;20021;-36
2022/08/26 09:05:51;;;;;;;5.28;1.38;;;22.40;99.90;;;;;;5025553;28;20108;-37
2022/08/26 09:08:21;;;;;;;3.85;0.95;;;22.30;99.90;;;;;;5042824;28;20290;-36
2022/08/26 09:10:54;;;;;;;5.47;1.00;;;22.20;99.90;;;;;;5025792;28;20504;-37
2022/08/26 09:13:22;;;;;;;5.07;1.10;;;22.20;99.90;;;;;;5041122;28;20037;-36
2022/08/26 09:15:50;;;;;;;4.20;0.98;;;22.20;99.90;;;;;;5046342;28;20017;-37
2022/08/26 09:18:56;;;;;;;4.55;1.02;;;22.20;99.90;;;;;;5046765;28;20037;-37
2022/08/26 09:21:23;;;;;;;7.05;1.20;;;22.30;99.90;;;;;;5025425;28;20030;-36
2022/08/26 09:23:50;;;;;;;5.82;1.50;;;22.30;99.90;;;;;;5042313;28;20021;-36
2022/08/26 09:26:37;;;;;;;6.57;1.50;;;22.30;99.90;;;;;;5046460;28;20025;-36
2022/08/26 09:29:08;;;;;;;1.50;0.80;;;22.30;99.90;;;;;;5045859;28;20029;-37
2022/08/26 09:31:36;;;;;;;4.50;0.93;;;22.30;99.90;;;;;;5026381;28;20127;-37
2022/08/26 09:34:13;;;;;;;4.72;0.98;;;22.40;99.90;;;;;;5040283;28;20567;-38
2022/08/26 09:36:43;;;;;;;4.88;1.13;;;22.50;99.90;;;;;;5026033;28;20633;-37
2022/08/26 09:39:32;;;;;;;4.88;1.00;;;22.50;99.90;;;;;;5041095;28;20040;-36
2022/08/26 09:42:10;;;;;;;4.07;1.00;;;22.50;99.90;;;;;;5032212;28;20035;-36
2022/08/26 09:44:53;;;;;;;4.15;1.05;;;22.40;99.90;;;;;;5044797;28;20380;-36
2022/08/26 09:47:26;;;;;;;3.75;1.17;;;22.50;99.90;;;;;;5046202;28;20024;-38
2022/08/26 09:50:08;;;;;;;4.00;0.75;;;22.50;99.90;;;;;;5044691;28;20037;-36
2022/08/26 09:52:33;;;;;;;7.20;1.70;;;22.60;99.90;;;;;;5045330;28;20166;-37
2022/08/26 09:55:13;;;;;;;3.03;1.05;;;22.80;99.90;;;;;;5044820;28;20487;-37
2022/08/26 09:57:47;;;;;;;4.10;0.90;;;22.80;99.90;;;;;;5045629;28;20025;-37
2022/08/26 10:00:23;;;;;;;5.22;1.02;;;22.80;99.90;;;;;;5045140;28;20047;-37
2022/08/26 10:02:49;;;;;;;3.60;1.10;;;22.80;99.90;;;;;;5045067;28;20325;-38
2022/08/26 10:05:25;;;;;;;4.65;1.20;;;22.70;99.90;;;;;;5044815;28;20052;-36
2022/08/26 10:07:51;;;;;;;5.80;1.23;;;22.70;99.90;;;;;;5025313;28;20037;-38
2022/08/26 10:10:39;;;;;;;3.95;0.93;;;22.60;99.90;;;;;;5040673;28;20060;-37
2022/08/26 10:13:14;;;;;;;3.67;0.80;;;22.50;99.90;;;;;;5025458;28;20041;-37
2022/08/26 10:16:04;;;;;;;3.03;0.95;;;22.50;99.90;;;;;;5042080;28;20028;-36
2022/08/26 10:18:40;;;;;;;3.20;0.77;;;22.50;99.90;;;;;;5044832;28;20051;-37
2022/08/26 10:21:24;;;;;;;3.63;1.05;;;22.60;99.90;;;;;;5044875;28;20025;-36
2022/08/26 10:23:54;;;;;;;2.80;0.90;;;22.60;99.90;;;;;;5044500;28;20021;-37
2022/08/26 10:26:37;;;;;;;3.42;1.10;;;22.70;99.90;;;;;;5044640;28;20138;-37
2022/08/26 10:29:12;;;;;;;3.40;0.80;;;22.70;99.90;;;;;;5045764;28;20055;-38
2022/08/26 10:31:39;;;;;;;3.90;0.90;;;22.70;99.90;;;;;;5043609;28;20029;-37
2022/08/26 10:34:05;;;;;;;3.20;0.95;;;22.70;99.90;;;;;;5045210;28;20029;-37
2022/08/26 10:36:55;;;;;;;4.03;1.17;;;22.90;99.90;;;;;;5044467;28;20032;-38
2022/08/26 10:39:51;;;;;;;2.60;0.98;;;23.00;99.90;;;;;;5044142;28;20037;-37
2022/08/26 10:42:40;;;;;;;3.30;0.95;;;23.10;99.90;;;;;;5042758;28;20029;-38
2022/08/26 10:45:16;;;;;;;3.17;0.80;;;23.20;99.90;;;;;;5043596;28;20025;-37
2022/08/26 10:47:54;;;;;;;2.00;0.90;;;23.20;99.90;;;;;;5044122;28;20495;-37
2022/08/26 10:50:24;;;;;;;1.85;0.80;;;23.20;99.90;;;;;;5044646;28;20033;-37
2022/08/26 10:53:14;;;;;;;2.33;0.85;;;23.20;99.90;;;;;;5043490;28;20453;-36
2022/08/26 10:55:55;;;;;;;3.67;1.10;;;23.20;99.90;;;;;;5044093;28;20025;-35
2022/08/26 10:58:58;;;;;;;4.63;1.05;;;23.20;99.90;;;;;;5044418;28;20061;-37
2022/08/26 11:01:41;;;;;;;2.88;0.90;;;23.00;99.90;;;;;;5044359;28;20195;-37
2022/08/26 11:04:13;;;;;;;1.83;0.82;;;23.00;99.90;;;;;;5044288;28;20032;-36
2022/08/26 11:06:38;;;;;;;2.55;0.75;;;22.90;99.90;;;;;;5043332;28;20036;-36
2022/08/26 11:09:07;;;;;;;1.10;0.70;;;22.90;99.90;;;;;;5044680;28;20029;-37
2022/08/26 11:11:39;;;;;;;3.90;0.90;;;22.80;99.90;;;;;;5044346;28;20036;-36
2022/08/26 11:14:25;;;;;;;2.55;0.80;;;22.70;99.90;;;;;;5043027;28;20055;-38
2022/08/26 11:16:52;;;;;;;2.72;0.90;;;22.70;99.90;;;;;;5039881;28;20025;-37
2022/08/26 11:19:37;;;;;;;2.42;0.98;;;22.70;99.90;;;;;;5043596;28;20029;-37
2022/08/26 11:22:25;;;;;;;2.30;1.08;;;22.80;99.90;;;;;;5043834;28;20024;-36
2022/08/26 11:24:54;;;;;;;3.67;0.80;;;22.80;99.90;;;;;;5044071;28;20108;-36
2022/08/26 11:27:23;;;;;;;2.70;0.77;;;22.90;99.90;;;;;;5043701;28;20033;-37
2022/08/26 11:30:12;;;;;;;2.08;0.90;;;22.90;99.90;;;;;;5043530;28;20028;-37
2022/08/26 11:32:37;;;;;;;2.92;1.10;;;22.90;99.90;;;;;;5043583;28;20040;-36
2022/08/26 11:35:10;;;;;;;2.83;0.88;;;22.80;99.90;;;;;;5043537;28;20553;-37
2022/08/26 11:37:40;;;;;;;2.05;0.85;;;22.70;99.90;;;;;;5044594;28;20040;-36
2022/08/26 11:40:11;;;;;;;4.68;1.00;;;22.60;99.90;;;;;;5044299;28;20099;-38
2022/08/26 11:42:42;;;;;;;3.50;0.90;;;22.70;99.90;;;;;;5043434;28;20025;-37
2022/08/26 11:45:31;;;;;;;3.35;1.33;;;22.60;99.90;;;;;;5043612;28;20425;-37
2022/08/26 11:47:57;;;;;;;3.00;1.00;;;22.60;99.90;;;;;;5042967;28;20037;-36
2022/08/26 11:50:25;;;;;;;4.72;0.85;;;22.60;99.90;;;;;;5043925;28;20025;-35
2022/08/26 11:54:24;;;;;;;4.00;0.80;;;22.60;99.90;;;;;;5081063;27;20927;-38
2022/08/26 11:56:51;;;;;;;4.18;1.10;;;22.50;99.90;;;;;;5081387;28;20422;-36
2022/08/26 11:59:32;;;;;;;3.97;0.80;;;22.50;99.90;;;;;;5081427;28;20479;-36
2022/08/26 12:01:59;;;;;;;3.08;1.00;;;22.60;99.90;;;;;;5078227;28;20396;-36
2022/08/26 12:04:32;;;;;;;2.38;0.90;;;22.60;99.90;;;;;;5081265;28;20028;-37
2022/08/26 12:07:00;;;;;;;4.13;0.82;;;22.70;99.90;;;;;;5081293;28;20107;-39
2022/08/26 12:09:33;;;;;;;2.45;0.70;;;22.60;99.90;;;;;;5080608;28;20338;-36
2022/08/26 12:12:17;;;;;;;1.52;0.60;;;22.70;99.90;;;;;;5081621;28;20108;-36
2022/08/26 12:14:43;;;;;;;1.52;0.60;;;22.70;99.90;;;;;;5081449;28;20040;-36
2022/08/26 12:17:25;;;;;;;2.47;0.88;;;22.70;99.90;;;;;;5080625;28;20026;-36
2022/08/26 12:19:51;;;;;;;2.08;0.80;;;22.70;99.90;;;;;;5081066;28;20032;-36
2022/08/26 12:22:24;;;;;;;2.20;0.60;;;22.70;99.90;;;;;;5081991;28;20029;-37
2022/08/26 12:24:59;;;;;;;2.28;0.70;;;22.60;99.90;;;;;;5080548;28;20024;-37
2022/08/26 12:27:47;;;;;;;1.48;0.50;;;22.60;99.90;;;;;;5060691;28;20024;-37
2022/08/26 12:30:15;;;;;;;2.13;0.80;;;22.60;99.90;;;;;;5078449;28;20032;-38
2022/08/26 12:32:47;;;;;;;4.00;1.38;;;22.60;99.90;;;;;;5080663;28;20036;-37
2022/08/26 12:35:13;;;;;;;;;;;22.70;99.90;;;;;;5081604;28;20047;-37
2022/08/26 12:37:42;;;;;;;2.63;0.80;;;22.70;99.90;;;;;;5079784;28;19908;-36
2022/08/26 12:40:26;;;;;;;1.30;0.65;;;22.80;99.90;;;;;;5080495;28;20027;-35
2022/08/26 12:42:52;;;;;;;2.35;0.60;;;23.00;99.80;;;;;;5071936;28;20028;-37
2022/08/26 12:45:33;;;;;;;1.00;0.50;;;23.20;99.50;;;;;;5079596;28;20051;-38
2022/08/26 12:48:04;;;;;;;1.63;0.60;;;23.40;99.00;;;;;;5081098;28;20431;-37
2022/08/26 12:50:33;;;;;;;3.33;0.80;;;23.70;98.90;;;;;;5079849;28;20028;-37
2022/08/26 12:53:03;;;;;;;1.58;0.57;;;23.90;98.20;;;;;;5080228;28;20055;-37
2022/08/26 12:55:43;;;;;;;0.75;0.50;;;24.00;98.20;;;;;;5080656;28;20034;-38
2022/08/26 12:58:38;;;;;;;1.77;0.60;;;24.00;97.80;;;;;;5080226;28;20032;-38
2022/08/26 13:01:03;;;;;;;1.20;0.63;;;24.00;97.90;;;;;;5075222;28;20523;-38
2022/08/26 13:03:36;;;;;;;1.55;0.70;;;23.90;97.80;;;;;;5080479;28;20438;-38
2022/08/26 13:06:22;;;;;;;1.75;0.63;;;23.70;97.80;;;;;;5066304;28;20025;-37